Time;durP1;ratioP1;P1;durP2;ratioP2;P2;SDS_P1;SDS_P2;PMS_P1;PMS_P2;Temp;Humidity;BMP_temperature;BMP_pressure;BME280_temperature;BME280_humidity;BME280_pressure;Samples;Min_cycle;Max_cycle;Signal;HPM_P1;HPM_P2
2021/03/16 13:33:29;;;;;;;;;;;;;;;;;;5995702;23;1791;-76
2021/03/16 13:57:00;;;;;;;;;;;;;;;;;;5443887;23;1528;-77
2021/03/16 13:59:25;;;;;;;;;;;;;;;;;;4975188;28;1479;-74
2021/03/16 14:01:50;;;;;;;;;;;;;;;;;;4976464;28;876;-75
2021/03/16 14:04:17;;;;;;;;;;;;;;;;;;4974517;28;1343;-76
2021/03/16 14:06:42;;;;;;;;;;;;;;;;;;4974995;28;1922;-76
2021/03/16 14:09:07;;;;;;;;;;;;;;;;;;4974529;28;1304;-74
2021/03/16 14:11:43;;;;;;;;;;;;;;;;;;4974807;28;1084;-73
2021/03/16 14:14:11;;;;;;;;;;;;;;;;;;4974857;28;1304;-76
2021/03/16 14:16:37;;;;;;;;;;;;;;;;;;4976479;28;1440;-71
2021/03/16 14:19:03;;;;;;;;;;;;;;;;;;4976024;28;923;-76
2021/03/16 14:21:38;;;;;;;;;;;;;;;;;;4975252;28;1262;-72
2021/03/16 14:24:04;;;;;;;;;;;;;;;;;;4975035;28;876;-72
2021/03/16 14:26:29;;;;;;;;;;;;;;;;;;4976055;28;1961;-72
2021/03/16 14:28:55;;;;;;;;;;;;;;;;;;4976372;28;1083;-72
2021/03/16 14:31:23;;;;;;;;;;;;;;;;;;4976286;28;1070;-72
2021/03/16 14:33:49;;;;;;;;;;;;;;;;;;4976202;28;881;-72
2021/03/16 14:36:16;;;;;;;;;;;;;;;;;;4975166;28;1441;-72
2021/03/16 14:38:42;;;;;;;;;;;;;;;;;;4976434;28;816;-72
2021/03/16 14:41:07;;;;;;;;;;;;;;;;;;4976090;28;886;-72
2021/03/16 14:43:35;;;;;;;;;;;;;;;;;;4976023;28;1004;-72
2021/03/16 14:46:01;;;;;;;;;;;;;;;;;;4974699;28;1976;-72
2021/03/16 14:48:26;;;;;;;;;;;;;;;;;;4976085;28;852;-72
2021/03/16 14:50:54;;;;;;;;;;;;;;;;;;4974362;28;1317;-72
2021/03/16 14:53:20;;;;;;;;;;;;;;;;;;4975887;28;1003;-72
2021/03/16 14:55:46;;;;;;;;;;;;;;;;;;4975586;28;1322;-72
2021/03/16 14:58:11;;;;;;;;;;;;;;;;;;4974675;28;889;-71
2021/03/16 15:00:37;;;;;;;;;;;;;;;;;;4974623;28;1770;-72
2021/03/16 15:03:03;;;;;;;;;;;;;;;;;;4975422;28;841;-72
2021/03/16 15:05:29;;;;;;;;;;;;;;;;;;4975679;28;1898;-72
2021/03/16 15:07:54;;;;;;;;;;;;;;;;;;4974574;28;1500;-72
2021/03/16 15:10:22;;;;;;;;;;;;;;;;;;4974550;28;1461;-72
2021/03/16 15:12:47;;;;;;;;;;;;;;;;;;4974142;28;1349;-72
2021/03/16 15:15:13;;;;;;;;;;;;;;;;;;4975761;28;871;-72
2021/03/16 15:17:41;;;;;;;;;;;;;;;;;;4974694;28;1487;-72
2021/03/16 15:20:08;;;;;;;;;;;;;;;;;;4975572;28;868;-72
2021/03/16 15:22:33;;;;;;;;;;;;;;;;;;4975527;28;1169;-72
2021/03/16 15:24:59;;;;;;;;;;;;;;;;;;4974351;28;1617;-72
2021/03/16 15:27:24;;;;;;;;;;;;;;;;;;4975449;28;1907;-72
2021/03/16 15:29:49;;;;;;;;;;;;;;;;;;4975601;28;857;-71
2021/03/16 15:32:15;;;;;;;;;;;;;;;;;;4975331;28;960;-72
2021/03/16 15:34:40;;;;;;;;;;;;;;;;;;4975496;28;864;-72
2021/03/16 15:37:05;;;;;;;;;;;;;;;;;;4974238;28;1335;-72
2021/03/16 15:39:31;;;;;;;;;;;;;;;;;;4975252;28;806;-72
2021/03/16 15:41:56;;;;;;;;;;;;;;;;;;4975243;28;865;-72
2021/03/16 15:44:21;;;;;;;;;;;;;;;;;;4975476;28;857;-72
2021/03/16 15:46:47;;;;;;;;;;;;;;;;;;4975315;28;1960;-73
2021/03/16 15:49:13;;;;;;;;;;;;;;;;;;4973896;28;1205;-72
2021/03/16 15:51:38;;;;;;;;;;;;;;;;;;4974127;28;1249;-72
2021/03/16 15:54:03;;;;;;;;;;;;;;;;;;4975587;28;805;-72
2021/03/16 15:56:29;;;;;;;;;;;;;;;;;;4975153;28;1469;-72
2021/03/16 15:58:54;;;;;;;;;;;;;;;;;;4974387;28;1543;-71
2021/03/16 16:01:19;;;;;;;;;;;;;;;;;;4975192;28;825;-72
2021/03/16 16:03:44;;;;;;;;;;;;;;;;;;4976523;28;817;-73
2021/03/16 16:06:10;;;;;;;;;;;;;;;;;;4977552;28;1907;-72
2021/03/16 16:08:35;;;;;;;;;;;;;;;;;;4978625;28;936;-73
2021/03/16 16:11:00;;;;;;;;;;;;;;;;;;4978748;28;939;-72
2021/03/16 16:13:26;;;;;;;;;;;;;;;;;;4977498;28;1188;-72
2021/03/16 16:15:52;;;;;;;;;;;;;;;;;;4978669;28;1357;-72
2021/03/16 16:18:18;;;;;;;;;;;;;;;;;;4978643;28;865;-72
2021/03/16 16:20:43;;;;;;;;;;;;;;;;;;4977091;28;1431;-72
2021/03/16 16:23:09;;;;;;;;;;;;;;;;;;4976596;28;1241;-72
2021/03/16 16:25:35;;;;;;;;;;;;;;;;;;4977281;28;1898;-72
2021/03/16 16:28:00;;;;;;;;;;;;;;;;;;4978561;28;864;-72
2021/03/16 16:30:26;;;;;;;;;;;;;;;;;;4977345;28;1237;-72
2021/03/16 16:32:51;;;;;;;;;;;;;;;;;;4977208;28;1138;-72
2021/03/16 16:35:17;;;;;;;;;;;;;;;;;;4978600;28;885;-72
2021/03/16 16:37:42;;;;;;;;;;;;;;;;;;4978313;28;1335;-72
2021/03/16 16:40:08;;;;;;;;;;;;;;;;;;4978421;28;825;-72
2021/03/16 16:42:34;;;;;;;;;;;;;;;;;;4976453;28;1712;-72
2021/03/16 16:45:00;;;;;;;;;;;;;;;;;;4977348;28;2030;-72
2021/03/16 16:47:25;;;;;;;;;;;;;;;;;;4976527;28;1994;-72
2021/03/16 16:49:50;;;;;;;;;;;;;;;;;;4977016;28;1794;-72
2021/03/16 16:52:16;;;;;;;;;;;;;;;;;;4976788;28;2137;-72
2021/03/16 16:54:41;;;;;;;;;;;;;;;;;;4976474;28;1837;-72
2021/03/16 16:57:06;;;;;;;;;;;;;;;;;;4977673;28;1302;-72
2021/03/16 16:59:32;;;;;;;;;;;;;;;;;;4976616;28;1865;-72
2021/03/16 17:01:57;;;;;;;;;;;;;;;;;;4976665;28;2025;-71
2021/03/16 17:04:22;;;;;;;;;;;;;;;;;;4978041;28;770;-72
2021/03/16 17:06:48;;;;;;;;;;;;;;;;;;4977570;28;2059;-72
2021/03/16 17:09:13;;;;;;;;;;;;;;;;;;4976561;28;1174;-72
2021/03/16 17:11:38;;;;;;;;;;;;;;;;;;4975987;28;2018;-72
2021/03/16 17:14:04;;;;;;;;;;;;;;;;;;4975960;28;2078;-72
2021/03/16 17:16:29;;;;;;;;;;;;;;;;;;4975284;28;1281;-72
2021/03/16 17:18:54;;;;;;;;;;;;;;;;;;4976651;28;1455;-72
2021/03/16 17:21:20;;;;;;;;;;;;;;;;;;4976374;28;1801;-72
2021/03/16 17:23:45;;;;;;;;;;;;;;;;;;4977289;28;893;-71
2021/03/16 17:26:10;;;;;;;;;;;;;;;;;;4976134;28;1895;-72
2021/03/16 17:28:35;;;;;;;;;;;;;;;;;;4977599;28;852;-72
2021/03/16 17:31:01;;;;;;;;;;;;;;;;;;4977354;28;872;-72
2021/03/16 17:33:27;;;;;;;;;;;;;;;;;;4976960;28;930;-73
2021/03/16 17:35:52;;;;;;;;;;;;;;;;;;4976042;28;1323;-72
2021/03/16 17:38:17;;;;;;;;;;;;;;;;;;4976121;28;1186;-72
2021/03/16 17:40:43;;;;;;;;;;;;;;;;;;4977384;28;825;-72
2021/03/16 17:43:08;;;;;;;;;;;;;;;;;;4977157;28;813;-72
2021/03/16 17:45:33;;;;;;;;;;;;;;;;;;4976953;28;1894;-69
2021/03/16 17:47:59;;;;;;;;;;;;;;;;;;4977005;28;1398;-69
2021/03/16 17:50:24;;;;;;;;;;;;;;;;;;4975747;28;1249;-69
2021/03/16 17:52:49;;;;;;;;;;;;;;;;;;4975694;28;1278;-69
2021/03/16 17:55:14;;;;;;;;;;;;;;;;;;4976769;28;932;-69
2021/03/16 17:57:40;;;;;;;;;;;;;;;;;;4976811;28;1283;-69
2021/03/16 18:00:06;;;;;;;;;;;;;;;;;;4976858;28;889;-69
2021/03/16 18:02:32;;;;;;;;;;;;;;;;;;4976540;28;901;-69
2021/03/16 18:04:57;;;;;;;;;;;;;;;;;;4975434;28;1217;-69
2021/03/16 18:07:22;;;;;;;;;;;;;;;;;;4976524;28;1895;-69
2021/03/16 18:09:48;;;;;;;;;;;;;;;;;;4976596;28;912;-69
2021/03/16 18:12:13;;;;;;;;;;;;;;;;;;4975509;28;1340;-69
2021/03/16 18:14:38;;;;;;;;;;;;;;;;;;4975197;28;1213;-69
2021/03/16 18:17:03;;;;;;;;;;;;;;;;;;4976666;28;1311;-69
2021/03/16 18:19:29;;;;;;;;;;;;;;;;;;4976572;28;854;-70
2021/03/16 18:21:55;;;;;;;;;;;;;;;;;;4975201;28;984;-70
2021/03/16 18:24:21;;;;;;;;;;;;;;;;;;4976703;28;821;-70
2021/03/16 18:26:47;;;;;;;;;;;;;;;;;;4976040;28;1904;-69
2021/03/16 18:29:12;;;;;;;;;;;;;;;;;;4975375;28;1320;-70
2021/03/16 18:31:37;;;;;;;;;;;;;;;;;;4976436;28;1039;-70
2021/03/16 18:34:02;;;;;;;;;;;;;;;;;;4974547;28;1388;-70
2021/03/16 18:36:28;;;;;;;;;;;;;;;;;;4974933;28;1454;-69
2021/03/16 18:38:53;;;;;;;;;;;;;;;;;;4975135;28;818;-69
2021/03/16 18:41:18;;;;;;;;;;;;;;;;;;4975257;28;870;-69
2021/03/16 18:43:44;;;;;;;;;;;;;;;;;;4975909;28;925;-69
2021/03/16 18:46:09;;;;;;;;;;;;;;;;;;4974635;28;1890;-69
2021/03/16 18:48:34;;;;;;;;;;;;;;;;;;4976041;28;805;-69
2021/03/16 18:51:00;;;;;;;;;;;;;;;;;;4976103;28;1028;-69
2021/03/16 18:53:26;;;;;;;;;;;;;;;;;;4975954;28;861;-69
2021/03/16 18:55:51;;;;;;;;;;;;;;;;;;4975583;28;1421;-69
2021/03/16 18:58:17;;;;;;;;;;;;;;;;;;4974689;28;924;-69
2021/03/16 19:00:42;;;;;;;;;;;;;;;;;;4974984;28;1317;-69
2021/03/16 19:03:07;;;;;;;;;;;;;;;;;;4975834;28;936;-69
2021/03/16 19:05:32;;;;;;;;;;;;;;;;;;4975703;28;1899;-69
2021/03/16 19:07:58;;;;;;;;;;;;;;;;;;4975509;28;1303;-70
2021/03/16 19:10:23;;;;;;;;;;;;;;;;;;4975961;28;810;-69
2021/03/16 19:12:49;;;;;;;;;;;;;;;;;;4975620;28;865;-70
2021/03/16 19:15:15;;;;;;;;;;;;;;;;;;4974384;28;1395;-69
2021/03/16 19:17:40;;;;;;;;;;;;;;;;;;4975530;28;1291;-70
2021/03/16 19:20:06;;;;;;;;;;;;;;;;;;4975706;28;974;-70
2021/03/16 19:22:31;;;;;;;;;;;;;;;;;;4975479;28;1168;-70
2021/03/16 19:24:57;;;;;;;;;;;;;;;;;;4974422;28;1295;-70
2021/03/16 19:27:22;;;;;;;;;;;;;;;;;;4975232;28;1973;-69
2021/03/16 19:29:47;;;;;;;;;;;;;;;;;;4973976;28;1408;-70
2021/03/16 19:32:13;;;;;;;;;;;;;;;;;;4975029;28;909;-69
2021/03/16 19:34:38;;;;;;;;;;;;;;;;;;4975092;28;905;-70
2021/03/16 19:37:03;;;;;;;;;;;;;;;;;;4973506;28;1350;-70
2021/03/16 19:39:29;;;;;;;;;;;;;;;;;;4976494;28;1404;-70
2021/03/16 19:41:54;;;;;;;;;;;;;;;;;;4978949;28;851;-70
2021/03/16 19:44:19;;;;;;;;;;;;;;;;;;4978654;28;806;-70
2021/03/16 19:46:46;;;;;;;;;;;;;;;;;;4977107;28;1973;-69
2021/03/16 19:49:11;;;;;;;;;;;;;;;;;;4977411;28;1439;-69
2021/03/16 19:51:37;;;;;;;;;;;;;;;;;;4978695;28;893;-69
2021/03/16 19:54:02;;;;;;;;;;;;;;;;;;4978520;28;806;-69
2021/03/16 19:56:28;;;;;;;;;;;;;;;;;;4978437;28;1402;-70
2021/03/16 19:58:56;;;;;;;;;;;;;;;;;;4978439;28;886;-70
2021/03/16 20:01:21;;;;;;;;;;;;;;;;;;4978124;28;892;-70
2021/03/16 20:03:47;;;;;;;;;;;;;;;;;;4977271;28;1215;-70
2021/03/16 20:06:12;;;;;;;;;;;;;;;;;;4978264;28;1903;-70
2021/03/16 20:08:37;;;;;;;;;;;;;;;;;;4978115;28;834;-70
2021/03/16 20:11:03;;;;;;;;;;;;;;;;;;4978171;28;868;-71
2021/03/16 20:13:29;;;;;;;;;;;;;;;;;;4978093;28;814;-70
2021/03/16 20:15:54;;;;;;;;;;;;;;;;;;4977982;28;1377;-70
2021/03/16 20:18:19;;;;;;;;;;;;;;;;;;4978150;28;825;-69
2021/03/16 20:20:44;;;;;;;;;;;;;;;;;;4978142;28;968;-69
2021/03/16 20:23:10;;;;;;;;;;;;;;;;;;4976534;28;1672;-69
2021/03/16 20:25:35;;;;;;;;;;;;;;;;;;4976734;28;1922;-69
2021/03/16 20:28:01;;;;;;;;;;;;;;;;;;4977719;28;794;-70
2021/03/16 20:30:27;;;;;;;;;;;;;;;;;;4976646;28;1237;-70
2021/03/16 20:32:52;;;;;;;;;;;;;;;;;;4977943;28;814;-69
2021/03/16 20:35:18;;;;;;;;;;;;;;;;;;4977932;28;798;-70
2021/03/16 20:37:44;;;;;;;;;;;;;;;;;;4976444;28;1481;-70
2021/03/16 20:40:10;;;;;;;;;;;;;;;;;;4976337;28;862;-70
2021/03/16 20:42:37;;;;;;;;;;;;;;;;;;4977652;28;887;-69
2021/03/16 20:45:03;;;;;;;;;;;;;;;;;;4976721;28;1887;-69
2021/03/16 20:47:28;;;;;;;;;;;;;;;;;;4977562;28;1890;-70
2021/03/16 20:49:54;;;;;;;;;;;;;;;;;;4976082;28;2317;-69
2021/03/16 20:52:19;;;;;;;;;;;;;;;;;;4975960;28;1150;-70
2021/03/16 20:54:45;;;;;;;;;;;;;;;;;;4976514;28;1285;-70
2021/03/16 20:57:10;;;;;;;;;;;;;;;;;;4977334;28;1314;-71
2021/03/16 20:59:36;;;;;;;;;;;;;;;;;;4977131;28;798;-70
2021/03/16 21:02:01;;;;;;;;;;;;;;;;;;4975824;28;1363;-70
2021/03/16 21:04:26;;;;;;;;;;;;;;;;;;4976204;28;1368;-70
2021/03/16 21:06:52;;;;;;;;;;;;;;;;;;4976083;28;1903;-70
2021/03/16 21:09:18;;;;;;;;;;;;;;;;;;4976022;28;846;-70
2021/03/16 21:11:43;;;;;;;;;;;;;;;;;;4976031;28;1175;-70
2021/03/16 21:14:08;;;;;;;;;;;;;;;;;;4975994;28;1127;-70
2021/03/16 21:16:34;;;;;;;;;;;;;;;;;;4977324;28;1283;-73
2021/03/16 21:18:59;;;;;;;;;;;;;;;;;;4976894;28;963;-71
2021/03/16 21:21:24;;;;;;;;;;;;;;;;;;4975853;28;1429;-70
2021/03/16 21:23:50;;;;;;;;;;;;;;;;;;4975597;28;1199;-70
2021/03/16 21:26:15;;;;;;;;;;;;;;;;;;4976670;28;1898;-69
2021/03/16 21:28:41;;;;;;;;;;;;;;;;;;4976869;28;1286;-69
2021/03/16 21:31:06;;;;;;;;;;;;;;;;;;4976934;28;817;-70
2021/03/16 21:33:31;;;;;;;;;;;;;;;;;;4976869;28;821;-70
2021/03/16 21:35:57;;;;;;;;;;;;;;;;;;4976878;28;1286;-70
2021/03/16 21:38:22;;;;;;;;;;;;;;;;;;4976514;28;935;-70
2021/03/16 21:40:47;;;;;;;;;;;;;;;;;;4975336;28;1194;-70
2021/03/16 21:43:13;;;;;;;;;;;;;;;;;;4975156;28;1310;-70
2021/03/16 21:45:38;;;;;;;;;;;;;;;;;;4975278;28;1955;-70
2021/03/16 21:48:04;;;;;;;;;;;;;;;;;;4975538;28;900;-69
2021/03/16 21:50:30;;;;;;;;;;;;;;;;;;4976341;28;806;-69
2021/03/16 21:52:55;;;;;;;;;;;;;;;;;;4958942;28;1301;-70
2021/03/16 21:55:21;;;;;;;;;;;;;;;;;;4975062;28;1358;-70
2021/03/16 21:57:47;;;;;;;;;;;;;;;;;;4975096;28;1480;-70
2021/03/16 22:00:13;;;;;;;;;;;;;;;;;;4975095;28;1217;-70
2021/03/16 22:02:39;;;;;;;;;;;;;;;;;;4975502;28;806;-70
2021/03/16 22:05:05;;;;;;;;;;;;;;;;;;4976212;28;933;-70
2021/03/16 22:07:30;;;;;;;;;;;;;;;;;;4976039;28;1945;-70
2021/03/16 22:09:55;;;;;;;;;;;;;;;;;;4976047;28;1031;-71
2021/03/16 22:12:21;;;;;;;;;;;;;;;;;;4974857;28;1210;-70
2021/03/16 22:14:46;;;;;;;;;;;;;;;;;;4975997;28;878;-69
2021/03/16 22:17:12;;;;;;;;;;;;;;;;;;4975955;28;1331;-69
2021/03/16 22:19:37;;;;;;;;;;;;;;;;;;4975872;28;865;-70
2021/03/16 22:22:02;;;;;;;;;;;;;;;;;;4975712;28;814;-69
2021/03/16 22:24:27;;;;;;;;;;;;;;;;;;4975949;28;799;-70
2021/03/16 22:26:53;;;;;;;;;;;;;;;;;;4975719;28;1899;-69
2021/03/16 22:29:18;;;;;;;;;;;;;;;;;;4975909;28;836;-69
2021/03/16 22:31:43;;;;;;;;;;;;;;;;;;4975853;28;925;-69
2021/03/16 22:34:08;;;;;;;;;;;;;;;;;;4974303;28;1194;-70
2021/03/16 22:36:34;;;;;;;;;;;;;;;;;;4974287;28;2362;-69
2021/03/16 22:38:59;;;;;;;;;;;;;;;;;;4975746;28;814;-69
2021/03/16 22:41:24;;;;;;;;;;;;;;;;;;4974062;28;961;-70
2021/03/16 22:43:49;;;;;;;;;;;;;;;;;;4974239;28;1394;-70
2021/03/16 22:46:15;;;;;;;;;;;;;;;;;;4975583;28;1957;-69
2021/03/16 22:48:41;;;;;;;;;;;;;;;;;;4975968;28;802;-69
2021/03/16 22:51:06;;;;;;;;;;;;;;;;;;4974062;28;1276;-69
2021/03/16 22:53:32;;;;;;;;;;;;;;;;;;4974469;28;956;-70
2021/03/16 22:55:57;;;;;;;;;;;;;;;;;;4975181;28;1287;-71
2021/03/16 22:58:22;;;;;;;;;;;;;;;;;;4974586;28;1227;-71
2021/03/16 23:00:48;;;;;;;;;;;;;;;;;;4975258;28;917;-71
2021/03/16 23:03:14;;;;;;;;;;;;;;;;;;4973762;28;1506;-71
2021/03/16 23:05:39;;;;;;;;;;;;;;;;;;4975308;28;1906;-70
2021/03/16 23:08:04;;;;;;;;;;;;;;;;;;4975275;28;893;-70
2021/03/16 23:10:30;;;;;;;;;;;;;;;;;;4973794;28;1220;-71
2021/03/16 23:12:55;;;;;;;;;;;;;;;;;;4974964;28;908;-71
2021/03/16 23:15:21;;;;;;;;;;;;;;;;;;4974153;28;1359;-71
2021/03/16 23:17:47;;;;;;;;;;;;;;;;;;4975501;28;1430;-70
2021/03/16 23:20:19;;;;;;;;;;;;;;;;;;4975114;28;944;-70
2021/03/16 23:22:45;;;;;;;;;;;;;;;;;;4973787;28;1189;-71
2021/03/16 23:25:15;;;;;;;;;;;;;;;;;;4974190;28;1226;-71
2021/03/16 23:27:41;;;;;;;;;;;;;;;;;;4973476;28;1971;-70
2021/03/16 23:30:07;;;;;;;;;;;;;;;;;;4973877;28;1349;-70
2021/03/16 23:32:32;;;;;;;;;;;;;;;;;;4973616;28;1248;-70
2021/03/16 23:34:57;;;;;;;;;;;;;;;;;;4975039;28;905;-70
2021/03/16 23:37:23;;;;;;;;;;;;;;;;;;4973446;28;1330;-70
2021/03/16 23:39:48;;;;;;;;;;;;;;;;;;4973736;28;1189;-69
2021/03/16 23:42:13;;;;;;;;;;;;;;;;;;4974928;28;830;-69
2021/03/16 23:44:39;;;;;;;;;;;;;;;;;;4973973;28;846;-69
2021/03/16 23:47:04;;;;;;;;;;;;;;;;;;4973526;28;1978;-69
2021/03/16 23:49:29;;;;;;;;;;;;;;;;;;4973723;28;1181;-69
2021/03/16 23:51:54;;;;;;;;;;;;;;;;;;4973336;28;1200;-70
2021/03/16 23:54:20;;;;;;;;;;;;;;;;;;4974816;28;894;-69
2021/03/16 23:56:45;;;;;;;;;;;;;;;;;;4973378;28;1369;-69
2021/03/16 23:59:10;;;;;;;;;;;;;;;;;;4973815;28;862;-70
